sensor_id;sensor_type;location;lat;lon;timestamp;pressure;altitude;pressure_sealevel;temperature;humidity
31225;BME280;17847;31.524;74.366;2023-08-12T00:00:05;97569.47;;;29.53;nan
31225;BME280;17847;31.524;74.366;2023-08-12T00:02:45;97569.81;;;29.52;nan
31225;BME280;17847;31.524;74.366;2023-08-12T00:05:15;97568.13;;;29.47;nan
31225;BME280;17847;31.524;74.366;2023-08-12T00:07:44;97565.63;;;29.42;nan
31225;BME280;17847;31.524;74.366;2023-08-12T00:10:14;97568.78;;;29.44;nan
31225;BME280;17847;31.524;74.366;2023-08-12T00:12:44;97564.13;;;29.44;nan
31225;BME280;17847;31.524;74.366;2023-08-12T00:15:14;97566.06;;;29.44;nan
31225;BME280;17847;31.524;74.366;2023-08-12T00:17:43;97564.50;;;29.43;nan
31225;BME280;17847;31.524;74.366;2023-08-12T00:20:13;97572.69;;;29.43;nan
31225;BME280;17847;31.524;74.366;2023-08-12T00:22:42;97563.56;;;29.39;nan
31225;BME280;17847;31.524;74.366;2023-08-12T00:25:11;97563.47;;;29.35;nan
31225;BME280;17847;31.524;74.366;2023-08-12T00:27:41;97566.19;;;29.35;nan
31225;BME280;17847;31.524;74.366;2023-08-12T00:30:11;97564.59;;;29.34;nan
31225;BME280;17847;31.524;74.366;2023-08-12T00:32:40;97564.59;;;29.34;nan
31225;BME280;17847;31.524;74.366;2023-08-12T00:35:10;97572.00;;;29.34;nan
31225;BME280;17847;31.524;74.366;2023-08-12T00:37:40;97568.91;;;29.35;nan
31225;BME280;17847;31.524;74.366;2023-08-12T00:40:10;97566.97;;;29.36;nan
31225;BME280;17847;31.524;74.366;2023-08-12T00:42:40;97563.69;;;29.30;nan
31225;BME280;17847;31.524;74.366;2023-08-12T00:45:10;97575.16;;;29.36;nan
31225;BME280;17847;31.524;74.366;2023-08-12T00:47:42;97570.03;;;29.34;nan
31225;BME280;17847;31.524;74.366;2023-08-12T00:50:13;97568.13;;;29.35;nan
31225;BME280;17847;31.524;74.366;2023-08-12T00:52:44;97573.25;;;29.36;nan
31225;BME280;17847;31.524;74.366;2023-08-12T00:55:14;97577.56;;;29.37;nan
31225;BME280;17847;31.524;74.366;2023-08-12T00:57:44;97581.09;;;29.38;nan
31225;BME280;17847;31.524;74.366;2023-08-12T01:00:14;97584.25;;;29.40;nan
31225;BME280;17847;31.524;74.366;2023-08-12T01:02:45;97584.25;;;29.40;nan
31225;BME280;17847;31.524;74.366;2023-08-12T01:05:17;97583.94;;;29.41;nan
31225;BME280;17847;31.524;74.366;2023-08-12T01:07:47;97592.53;;;29.43;nan
31225;BME280;17847;31.524;74.366;2023-08-12T01:10:17;97581.31;;;29.45;nan
31225;BME280;17847;31.524;74.366;2023-08-12T01:13:26;97583.34;;;29.48;nan
31225;BME280;17847;31.524;74.366;2023-08-12T01:15:45;97588.94;;;29.52;nan
31225;BME280;17847;31.524;74.366;2023-08-12T01:18:16;97588.56;;;29.53;nan
31225;BME280;17847;31.524;74.366;2023-08-12T01:20:46;97594.13;;;29.57;nan
31225;BME280;17847;31.524;74.366;2023-08-12T01:23:16;97589.59;;;29.61;nan
31225;BME280;17847;31.524;74.366;2023-08-12T01:25:46;97593.91;;;29.62;nan
31225;BME280;17847;31.524;74.366;2023-08-12T01:28:15;97596.28;;;29.63;nan
31225;BME280;17847;31.524;74.366;2023-08-12T01:30:57;97605.47;;;29.71;nan
31225;BME280;17847;31.524;74.366;2023-08-12T01:33:39;97600.94;;;29.75;nan
31225;BME280;17847;31.524;74.366;2023-08-12T01:36:16;97607.28;;;29.79;nan
31225;BME280;17847;31.524;74.366;2023-08-12T01:38:47;97603.41;;;29.80;nan
31225;BME280;17847;31.524;74.366;2023-08-12T01:41:19;97615.25;;;29.84;nan
31225;BME280;17847;31.524;74.366;2023-08-12T01:43:50;97610.38;;;29.89;nan
31225;BME280;17847;31.524;74.366;2023-08-12T01:46:26;97614.81;;;29.94;nan
31225;BME280;17847;31.524;74.366;2023-08-12T01:48:56;97619.13;;;29.95;nan
31225;BME280;17847;31.524;74.366;2023-08-12T01:51:28;97627.19;;;30.04;nan
31225;BME280;17847;31.524;74.366;2023-08-12T01:53:58;97625.34;;;30.08;nan
31225;BME280;17847;31.524;74.366;2023-08-12T01:56:27;97624.75;;;30.14;nan
31225;BME280;17847;31.524;74.366;2023-08-12T01:58:56;97625.31;;;30.20;nan
31225;BME280;17847;31.524;74.366;2023-08-12T02:01:26;97625.88;;;30.25;nan
31225;BME280;17847;31.524;74.366;2023-08-12T02:03:55;97636.97;;;30.32;nan
31225;BME280;17847;31.524;74.366;2023-08-12T02:06:25;97638.00;;;30.40;nan
31225;BME280;17847;31.524;74.366;2023-08-12T02:08:54;97636.16;;;30.44;nan
31225;BME280;17847;31.524;74.366;2023-08-12T02:11:23;97637.59;;;30.54;nan
31225;BME280;17847;31.524;74.366;2023-08-12T02:13:53;97636.06;;;30.68;nan
31225;BME280;17847;31.524;74.366;2023-08-12T02:16:22;97642.88;;;30.74;nan
31225;BME280;17847;31.524;74.366;2023-08-12T02:18:52;97645.53;;;30.87;nan
31225;BME280;17847;31.524;74.366;2023-08-12T02:21:21;97642.38;;;30.85;nan
31225;BME280;17847;31.524;74.366;2023-08-12T02:23:50;97643.31;;;31.20;nan
31225;BME280;17847;31.524;74.366;2023-08-12T02:26:20;97660.41;;;31.48;nan
31225;BME280;17847;31.524;74.366;2023-08-12T02:28:49;97652.53;;;31.94;nan
31225;BME280;17847;31.524;74.366;2023-08-12T02:31:19;97652.66;;;32.17;nan
31225;BME280;17847;31.524;74.366;2023-08-12T02:33:49;97652.38;;;32.41;nan
31225;BME280;17847;31.524;74.366;2023-08-12T02:36:18;97656.44;;;32.66;nan
31225;BME280;17847;31.524;74.366;2023-08-12T02:38:48;97661.50;;;32.64;nan
31225;BME280;17847;31.524;74.366;2023-08-12T02:41:17;97657.88;;;32.79;nan
31225;BME280;17847;31.524;74.366;2023-08-12T02:43:46;97659.84;;;33.02;nan
31225;BME280;17847;31.524;74.366;2023-08-12T02:46:16;97659.72;;;32.94;nan
31225;BME280;17847;31.524;74.366;2023-08-12T02:48:47;97668.72;;;32.95;nan
31225;BME280;17847;31.524;74.366;2023-08-12T02:51:16;97673.31;;;32.87;nan
31225;BME280;17847;31.524;74.366;2023-08-12T02:53:45;97664.69;;;32.66;nan
31225;BME280;17847;31.524;74.366;2023-08-12T02:56:14;97666.06;;;32.60;nan
31225;BME280;17847;31.524;74.366;2023-08-12T02:58:44;97667.78;;;32.65;nan
31225;BME280;17847;31.524;74.366;2023-08-12T03:01:13;97676.53;;;32.54;nan
31225;BME280;17847;31.524;74.366;2023-08-12T03:03:43;97674.59;;;32.55;nan
31225;BME280;17847;31.524;74.366;2023-08-12T03:06:12;97677.13;;;32.64;nan
31225;BME280;17847;31.524;74.366;2023-08-12T03:08:42;97679.44;;;32.62;nan
31225;BME280;17847;31.524;74.366;2023-08-12T03:11:11;97682.47;;;32.57;nan
31225;BME280;17847;31.524;74.366;2023-08-12T03:13:41;97680.94;;;32.59;nan
31225;BME280;17847;31.524;74.366;2023-08-12T03:16:13;97688.75;;;32.57;nan
31225;BME280;17847;31.524;74.366;2023-08-12T03:18:46;97679.50;;;32.46;nan
31225;BME280;17847;31.524;74.366;2023-08-12T03:21:16;97690.31;;;32.39;nan
31225;BME280;17847;31.524;74.366;2023-08-12T03:23:46;97692.47;;;32.30;nan
31225;BME280;17847;31.524;74.366;2023-08-12T03:26:16;97689.50;;;32.19;nan
31225;BME280;17847;31.524;74.366;2023-08-12T03:28:45;97688.00;;;32.22;nan
31225;BME280;17847;31.524;74.366;2023-08-12T03:31:18;97693.88;;;32.39;nan
31225;BME280;17847;31.524;74.366;2023-08-12T03:33:48;97691.25;;;32.27;nan
31225;BME280;17847;31.524;74.366;2023-08-12T03:36:17;97695.53;;;32.44;nan
31225;BME280;17847;31.524;74.366;2023-08-12T03:38:47;97693.34;;;32.53;nan
31225;BME280;17847;31.524;74.366;2023-08-12T03:41:22;97696.34;;;32.64;nan
31225;BME280;17847;31.524;74.366;2023-08-12T03:43:53;97701.53;;;32.69;nan
31225;BME280;17847;31.524;74.366;2023-08-12T03:46:25;97690.63;;;32.72;nan
31225;BME280;17847;31.524;74.366;2023-08-12T03:48:55;97699.09;;;32.83;nan
31225;BME280;17847;31.524;74.366;2023-08-12T03:51:25;97699.78;;;32.80;nan
31225;BME280;17847;31.524;74.366;2023-08-12T03:53:54;97690.91;;;32.86;nan
31225;BME280;17847;31.524;74.366;2023-08-12T03:56:24;97701.44;;;32.84;nan
31225;BME280;17847;31.524;74.366;2023-08-12T03:58:53;97699.19;;;32.90;nan
31225;BME280;17847;31.524;74.366;2023-08-12T04:01:23;97709.81;;;32.91;nan
31225;BME280;17847;31.524;74.366;2023-08-12T04:03:53;97707.78;;;32.88;nan
31225;BME280;17847;31.524;74.366;2023-08-12T04:06:22;97702.00;;;32.93;nan
31225;BME280;17847;31.524;74.366;2023-08-12T04:08:52;97699.72;;;32.95;nan
31225;BME280;17847;31.524;74.366;2023-08-12T04:11:21;97703.25;;;32.96;nan
31225;BME280;17847;31.524;74.366;2023-08-12T04:13:51;97707.34;;;33.06;nan
31225;BME280;17847;31.524;74.366;2023-08-12T04:16:20;97705.63;;;33.17;nan
31225;BME280;17847;31.524;74.366;2023-08-12T04:18:50;97704.34;;;33.33;nan
31225;BME280;17847;31.524;74.366;2023-08-12T04:21:20;97707.53;;;33.35;nan
31225;BME280;17847;31.524;74.366;2023-08-12T04:23:49;97703.94;;;33.31;nan
31225;BME280;17847;31.524;74.366;2023-08-12T04:26:18;97711.78;;;33.33;nan
31225;BME280;17847;31.524;74.366;2023-08-12T04:28:48;97713.88;;;33.39;nan
31225;BME280;17847;31.524;74.366;2023-08-12T04:31:18;97712.03;;;33.47;nan
31225;BME280;17847;31.524;74.366;2023-08-12T04:33:49;97713.00;;;33.58;nan
31225;BME280;17847;31.524;74.366;2023-08-12T04:36:24;97713.69;;;33.74;nan
31225;BME280;17847;31.524;74.366;2023-08-12T04:38:54;97710.16;;;34.00;nan
31225;BME280;17847;31.524;74.366;2023-08-12T04:41:23;97716.66;;;34.15;nan
31225;BME280;17847;31.524;74.366;2023-08-12T04:43:54;97716.41;;;34.23;nan
31225;BME280;17847;31.524;74.366;2023-08-12T04:46:27;97716.75;;;34.48;nan
31225;BME280;17847;31.524;74.366;2023-08-12T04:48:57;97722.53;;;34.40;nan
31225;BME280;17847;31.524;74.366;2023-08-12T04:51:27;97723.31;;;34.70;nan
31225;BME280;17847;31.524;74.366;2023-08-12T04:53:57;97718.53;;;34.97;nan
31225;BME280;17847;31.524;74.366;2023-08-12T04:56:26;97721.72;;;34.99;nan
31225;BME280;17847;31.524;74.366;2023-08-12T04:58:57;97719.72;;;34.96;nan
31225;BME280;17847;31.524;74.366;2023-08-12T05:01:27;97721.25;;;35.27;nan
31225;BME280;17847;31.524;74.366;2023-08-12T05:03:57;97724.41;;;35.29;nan
31225;BME280;17847;31.524;74.366;2023-08-12T05:06:28;97728.22;;;35.17;nan
31225;BME280;17847;31.524;74.366;2023-08-12T05:08:57;97715.00;;;34.96;nan
31225;BME280;17847;31.524;74.366;2023-08-12T05:11:28;97725.13;;;35.22;nan
31225;BME280;17847;31.524;74.366;2023-08-12T05:13:58;97726.53;;;35.46;nan
31225;BME280;17847;31.524;74.366;2023-08-12T05:16:27;97716.72;;;35.48;nan
31225;BME280;17847;31.524;74.366;2023-08-12T05:18:58;97718.41;;;35.60;nan
31225;BME280;17847;31.524;74.366;2023-08-12T05:21:27;97718.75;;;35.58;nan
31225;BME280;17847;31.524;74.366;2023-08-12T05:23:57;97717.13;;;35.50;nan
31225;BME280;17847;31.524;74.366;2023-08-12T05:26:28;97717.22;;;35.61;nan
31225;BME280;17847;31.524;74.366;2023-08-12T05:28:57;97720.78;;;35.62;nan
31225;BME280;17847;31.524;74.366;2023-08-12T05:31:27;97715.28;;;35.62;nan
31225;BME280;17847;31.524;74.366;2023-08-12T05:33:56;97719.63;;;35.63;nan
31225;BME280;17847;31.524;74.366;2023-08-12T05:36:25;97714.56;;;35.72;nan
31225;BME280;17847;31.524;74.366;2023-08-12T05:38:55;97721.56;;;35.62;nan
31225;BME280;17847;31.524;74.366;2023-08-12T05:41:24;97714.34;;;35.94;nan
31225;BME280;17847;31.524;74.366;2023-08-12T05:43:54;97712.91;;;36.11;nan
31225;BME280;17847;31.524;74.366;2023-08-12T05:46:24;97718.13;;;36.23;nan
31225;BME280;17847;31.524;74.366;2023-08-12T05:48:53;97715.81;;;36.32;nan
31225;BME280;17847;31.524;74.366;2023-08-12T05:51:23;97708.34;;;36.36;nan
31225;BME280;17847;31.524;74.366;2023-08-12T05:53:54;97707.19;;;36.41;nan
31225;BME280;17847;31.524;74.366;2023-08-12T05:56:23;97710.47;;;36.64;nan
31225;BME280;17847;31.524;74.366;2023-08-12T05:58:53;97702.50;;;36.48;nan
31225;BME280;17847;31.524;74.366;2023-08-12T06:01:23;97708.91;;;36.74;nan
31225;BME280;17847;31.524;74.366;2023-08-12T06:03:52;97698.28;;;36.72;nan
31225;BME280;17847;31.524;74.366;2023-08-12T06:06:22;97704.09;;;36.57;nan
31225;BME280;17847;31.524;74.366;2023-08-12T06:08:51;97703.31;;;36.56;nan
31225;BME280;17847;31.524;74.366;2023-08-12T06:11:20;97704.19;;;36.74;nan
31225;BME280;17847;31.524;74.366;2023-08-12T06:13:50;97707.28;;;36.59;nan
31225;BME280;17847;31.524;74.366;2023-08-12T06:16:19;97700.69;;;36.88;nan
31225;BME280;17847;31.524;74.366;2023-08-12T06:18:48;97702.66;;;36.80;nan
31225;BME280;17847;31.524;74.366;2023-08-12T06:21:18;97698.97;;;36.55;nan
31225;BME280;17847;31.524;74.366;2023-08-12T06:23:47;97701.03;;;36.69;nan
31225;BME280;17847;31.524;74.366;2023-08-12T06:26:16;97690.06;;;36.90;nan
31225;BME280;17847;31.524;74.366;2023-08-12T06:28:46;97691.22;;;36.82;nan
31225;BME280;17847;31.524;74.366;2023-08-12T06:31:15;97686.09;;;36.77;nan
31225;BME280;17847;31.524;74.366;2023-08-12T06:33:44;97688.44;;;36.75;nan
31225;BME280;17847;31.524;74.366;2023-08-12T06:36:14;97681.28;;;36.60;nan
31225;BME280;17847;31.524;74.366;2023-08-12T06:38:43;97684.50;;;36.72;nan
31225;BME280;17847;31.524;74.366;2023-08-12T06:41:12;97682.16;;;36.92;nan
31225;BME280;17847;31.524;74.366;2023-08-12T06:43:41;97683.00;;;37.03;nan
31225;BME280;17847;31.524;74.366;2023-08-12T06:46:12;97673.13;;;36.95;nan
31225;BME280;17847;31.524;74.366;2023-08-12T06:48:41;97664.09;;;37.09;nan
31225;BME280;17847;31.524;74.366;2023-08-12T06:51:10;97669.19;;;37.03;nan
31225;BME280;17847;31.524;74.366;2023-08-12T06:53:40;97669.53;;;36.80;nan
31225;BME280;17847;31.524;74.366;2023-08-12T06:56:09;97666.75;;;36.77;nan
31225;BME280;17847;31.524;74.366;2023-08-12T06:58:40;97659.66;;;36.72;nan
31225;BME280;17847;31.524;74.366;2023-08-12T07:01:09;97666.38;;;36.89;nan
31225;BME280;17847;31.524;74.366;2023-08-12T07:03:41;97656.13;;;36.97;nan
31225;BME280;17847;31.524;74.366;2023-08-12T07:06:11;97656.09;;;36.75;nan
31225;BME280;17847;31.524;74.366;2023-08-12T07:08:40;97653.75;;;36.88;nan
31225;BME280;17847;31.524;74.366;2023-08-12T07:11:09;97653.00;;;36.95;nan
31225;BME280;17847;31.524;74.366;2023-08-12T07:13:39;97641.94;;;36.95;nan
31225;BME280;17847;31.524;74.366;2023-08-12T07:16:08;97645.50;;;37.02;nan
31225;BME280;17847;31.524;74.366;2023-08-12T07:18:37;97648.63;;;36.83;nan
31225;BME280;17847;31.524;74.366;2023-08-12T07:21:07;97643.50;;;36.85;nan
31225;BME280;17847;31.524;74.366;2023-08-12T07:23:37;97638.78;;;36.82;nan
31225;BME280;17847;31.524;74.366;2023-08-12T07:26:08;97637.94;;;36.71;nan
31225;BME280;17847;31.524;74.366;2023-08-12T07:28:37;97631.66;;;36.81;nan
31225;BME280;17847;31.524;74.366;2023-08-12T07:31:07;97621.44;;;36.78;nan
31225;BME280;17847;31.524;74.366;2023-08-12T07:33:37;97628.13;;;36.77;nan
31225;BME280;17847;31.524;74.366;2023-08-12T07:36:06;97621.44;;;36.85;nan
31225;BME280;17847;31.524;74.366;2023-08-12T07:38:35;97628.53;;;36.86;nan
31225;BME280;17847;31.524;74.366;2023-08-12T07:41:04;97614.34;;;36.91;nan
31225;BME280;17847;31.524;74.366;2023-08-12T07:43:34;97620.19;;;36.65;nan
31225;BME280;17847;31.524;74.366;2023-08-12T07:46:03;97615.00;;;36.53;nan
31225;BME280;17847;31.524;74.366;2023-08-12T07:48:36;97617.88;;;36.84;nan
31225;BME280;17847;31.524;74.366;2023-08-12T07:51:07;97607.59;;;36.71;nan
31225;BME280;17847;31.524;74.366;2023-08-12T07:53:36;97595.69;;;36.53;nan
31225;BME280;17847;31.524;74.366;2023-08-12T07:56:05;97595.31;;;36.54;nan
31225;BME280;17847;31.524;74.366;2023-08-12T07:58:34;97598.44;;;36.45;nan
31225;BME280;17847;31.524;74.366;2023-08-12T08:01:04;97596.13;;;36.65;nan
31225;BME280;17847;31.524;74.366;2023-08-12T08:03:34;97588.63;;;36.59;nan
31225;BME280;17847;31.524;74.366;2023-08-12T08:06:03;97585.50;;;36.67;nan
31225;BME280;17847;31.524;74.366;2023-08-12T08:08:32;97581.13;;;36.56;nan
31225;BME280;17847;31.524;74.366;2023-08-12T08:11:01;97579.53;;;36.55;nan
31225;BME280;17847;31.524;74.366;2023-08-12T08:13:31;97580.34;;;36.59;nan
31225;BME280;17847;31.524;74.366;2023-08-12T08:16:00;97574.78;;;36.48;nan
31225;BME280;17847;31.524;74.366;2023-08-12T08:18:29;97565.72;;;36.37;nan
31225;BME280;17847;31.524;74.366;2023-08-12T08:20:59;97568.47;;;36.44;nan
31225;BME280;17847;31.524;74.366;2023-08-12T08:23:32;97559.44;;;36.54;nan
31225;BME280;17847;31.524;74.366;2023-08-12T08:26:04;97558.22;;;36.52;nan
31225;BME280;17847;31.524;74.366;2023-08-12T08:28:34;97559.06;;;36.56;nan
31225;BME280;17847;31.524;74.366;2023-08-12T08:31:03;97555.00;;;36.21;nan
31225;BME280;17847;31.524;74.366;2023-08-12T08:33:33;97552.88;;;35.86;nan
31225;BME280;17847;31.524;74.366;2023-08-12T08:36:02;97539.88;;;35.87;nan
31225;BME280;17847;31.524;74.366;2023-08-12T08:38:31;97546.19;;;35.94;nan
31225;BME280;17847;31.524;74.366;2023-08-12T08:41:02;97539.06;;;35.76;nan
31225;BME280;17847;31.524;74.366;2023-08-12T08:43:35;97547.75;;;35.85;nan
31225;BME280;17847;31.524;74.366;2023-08-12T08:46:06;97528.50;;;35.95;nan
31225;BME280;17847;31.524;74.366;2023-08-12T08:48:36;97530.88;;;36.00;nan
31225;BME280;17847;31.524;74.366;2023-08-12T08:51:06;97527.28;;;35.89;nan
31225;BME280;17847;31.524;74.366;2023-08-12T08:53:41;97519.44;;;35.95;nan
31225;BME280;17847;31.524;74.366;2023-08-12T08:56:12;97513.84;;;35.77;nan
31225;BME280;17847;31.524;74.366;2023-08-12T08:58:42;97508.75;;;35.83;nan
31225;BME280;17847;31.524;74.366;2023-08-12T09:01:13;97511.53;;;35.86;nan
31225;BME280;17847;31.524;74.366;2023-08-12T09:03:44;97507.59;;;35.87;nan
31225;BME280;17847;31.524;74.366;2023-08-12T09:06:15;97505.22;;;35.86;nan
31225;BME280;17847;31.524;74.366;2023-08-12T09:08:45;97504.84;;;35.87;nan
31225;BME280;17847;31.524;74.366;2023-08-12T09:11:17;97495.41;;;35.99;nan
31225;BME280;17847;31.524;74.366;2023-08-12T09:13:47;97500.97;;;36.10;nan
31225;BME280;17847;31.524;74.366;2023-08-12T09:16:17;97496.63;;;36.05;nan
31225;BME280;17847;31.524;74.366;2023-08-12T09:18:46;97490.31;;;36.01;nan
31225;BME280;17847;31.524;74.366;2023-08-12T09:21:16;97487.53;;;35.94;nan
31225;BME280;17847;31.524;74.366;2023-08-12T09:23:45;97491.06;;;35.94;nan
31225;BME280;17847;31.524;74.366;2023-08-12T09:26:19;97487.19;;;36.02;nan
31225;BME280;17847;31.524;74.366;2023-08-12T09:28:50;97486.41;;;36.06;nan
31225;BME280;17847;31.524;74.366;2023-08-12T09:31:28;97491.91;;;36.09;nan
31225;BME280;17847;31.524;74.366;2023-08-12T09:34:00;97484.78;;;35.94;nan
31225;BME280;17847;31.524;74.366;2023-08-12T09:36:33;97482.81;;;35.94;nan
31225;BME280;17847;31.524;74.366;2023-08-12T09:39:07;97466.56;;;35.65;nan
31225;BME280;17847;31.524;74.366;2023-08-12T09:41:37;97476.03;;;35.74;nan
31225;BME280;17847;31.524;74.366;2023-08-12T09:44:08;97468.22;;;35.87;nan
31225;BME280;17847;31.524;74.366;2023-08-12T09:46:38;97456.41;;;35.86;nan
31225;BME280;17847;31.524;74.366;2023-08-12T09:49:08;97454.81;;;35.82;nan
31225;BME280;17847;31.524;74.366;2023-08-12T09:51:37;97452.47;;;35.80;nan
31225;BME280;17847;31.524;74.366;2023-08-12T09:54:10;97456.81;;;35.85;nan
31225;BME280;17847;31.524;74.366;2023-08-12T09:56:49;97454.06;;;35.92;nan
31225;BME280;17847;31.524;74.366;2023-08-12T09:59:22;97439.50;;;35.95;nan
31225;BME280;17847;31.524;74.366;2023-08-12T10:01:52;97438.31;;;35.96;nan
31225;BME280;17847;31.524;74.366;2023-08-12T10:04:28;97428.47;;;35.88;nan
31225;BME280;17847;31.524;74.366;2023-08-12T10:06:59;97424.13;;;35.87;nan
31225;BME280;17847;31.524;74.366;2023-08-12T10:09:32;97417.81;;;35.83;nan
31225;BME280;17847;31.524;74.366;2023-08-12T10:12:03;97414.69;;;35.88;nan
31225;BME280;17847;31.524;74.366;2023-08-12T10:14:33;97414.69;;;35.84;nan
31225;BME280;17847;31.524;74.366;2023-08-12T10:17:03;97409.97;;;35.85;nan
31225;BME280;17847;31.524;74.366;2023-08-12T10:19:34;97406.78;;;35.90;nan
31225;BME280;17847;31.524;74.366;2023-08-12T10:22:05;97411.53;;;35.93;nan
31225;BME280;17847;31.524;74.366;2023-08-12T10:24:36;97401.69;;;35.85;nan
31225;BME280;17847;31.524;74.366;2023-08-12T10:27:07;97404.81;;;35.87;nan
31225;BME280;17847;31.524;74.366;2023-08-12T10:29:36;97408.38;;;35.84;nan
31225;BME280;17847;31.524;74.366;2023-08-12T10:32:06;97402.81;;;35.77;nan
31225;BME280;17847;31.524;74.366;2023-08-12T10:34:35;97401.66;;;35.78;nan
31225;BME280;17847;31.524;74.366;2023-08-12T10:37:05;97398.91;;;35.74;nan
31225;BME280;17847;31.524;74.366;2023-08-12T10:39:37;97392.22;;;35.75;nan
31225;BME280;17847;31.524;74.366;2023-08-12T10:42:07;97380.41;;;35.71;nan
31225;BME280;17847;31.524;74.366;2023-08-12T10:44:40;97381.94;;;35.69;nan
31225;BME280;17847;31.524;74.366;2023-08-12T10:47:18;97379.97;;;35.66;nan
31225;BME280;17847;31.524;74.366;2023-08-12T10:49:50;97374.03;;;35.64;nan
31225;BME280;17847;31.524;74.366;2023-08-12T10:52:32;97383.13;;;35.64;nan
31225;BME280;17847;31.524;74.366;2023-08-12T10:55:23;97374.47;;;35.66;nan
31225;BME280;17847;31.524;74.366;2023-08-12T10:57:55;97366.97;;;35.63;nan
31225;BME280;17847;31.524;74.366;2023-08-12T11:00:29;97363.00;;;35.53;nan
31225;BME280;17847;31.524;74.366;2023-08-12T11:02:58;97355.53;;;35.60;nan
31225;BME280;17847;31.524;74.366;2023-08-12T11:05:36;97361.03;;;35.60;nan
31225;BME280;17847;31.524;74.366;2023-08-12T11:08:07;97346.47;;;35.56;nan
31225;BME280;17847;31.524;74.366;2023-08-12T11:10:37;97348.06;;;35.57;nan
31225;BME280;17847;31.524;74.366;2023-08-12T11:13:06;97354.72;;;35.53;nan
31225;BME280;17847;31.524;74.366;2023-08-12T11:15:38;97350.78;;;35.50;nan
31225;BME280;17847;31.524;74.366;2023-08-12T11:18:13;97343.66;;;35.46;nan
31225;BME280;17847;31.524;74.366;2023-08-12T11:20:43;97329.09;;;35.45;nan
31225;BME280;17847;31.524;74.366;2023-08-12T11:23:14;97334.66;;;35.49;nan
31225;BME280;17847;31.524;74.366;2023-08-12T11:25:44;97335.41;;;35.46;nan
31225;BME280;17847;31.524;74.366;2023-08-12T11:28:14;97321.22;;;35.37;nan
31225;BME280;17847;31.524;74.366;2023-08-12T11:30:43;97322.00;;;35.34;nan
31225;BME280;17847;31.524;74.366;2023-08-12T11:33:16;97314.13;;;35.32;nan
31225;BME280;17847;31.524;74.366;2023-08-12T11:35:50;97315.28;;;35.28;nan
31225;BME280;17847;31.524;74.366;2023-08-12T11:38:20;97307.81;;;35.25;nan
31225;BME280;17847;31.524;74.366;2023-08-12T11:40:50;97301.91;;;35.23;nan
31225;BME280;17847;31.524;74.366;2023-08-12T11:43:23;97307.38;;;35.15;nan
31225;BME280;17847;31.524;74.366;2023-08-12T11:45:55;97299.53;;;35.18;nan
31225;BME280;17847;31.524;74.366;2023-08-12T11:48:27;97301.06;;;35.15;nan
31225;BME280;17847;31.524;74.366;2023-08-12T11:50:58;97295.97;;;35.13;nan
31225;BME280;17847;31.524;74.366;2023-08-12T11:53:28;97297.13;;;35.12;nan
31225;BME280;17847;31.524;74.366;2023-08-12T11:55:59;97300.66;;;35.13;nan
31225;BME280;17847;31.524;74.366;2023-08-12T11:58:36;97302.22;;;35.10;nan
31225;BME280;17847;31.524;74.366;2023-08-12T12:01:18;97292.78;;;35.08;nan
31225;BME280;17847;31.524;74.366;2023-08-12T12:03:53;97291.19;;;35.03;nan
31225;BME280;17847;31.524;74.366;2023-08-12T12:06:36;97289.97;;;34.97;nan
31225;BME280;17847;31.524;74.366;2023-08-12T12:09:08;97294.28;;;34.95;nan
31225;BME280;17847;31.524;74.366;2023-08-12T12:11:38;97297.03;;;34.91;nan
31225;BME280;17847;31.524;74.366;2023-08-12T12:14:09;97285.59;;;34.86;nan
31225;BME280;17847;31.524;74.366;2023-08-12T12:16:42;97283.63;;;34.83;nan
31225;BME280;17847;31.524;74.366;2023-08-12T12:19:18;97288.72;;;34.81;nan
31225;BME280;17847;31.524;74.366;2023-08-12T12:21:52;97276.50;;;34.75;nan
31225;BME280;17847;31.524;74.366;2023-08-12T12:24:29;97278.50;;;34.74;nan
31225;BME280;17847;31.524;74.366;2023-08-12T12:26:59;97279.25;;;34.75;nan
31225;BME280;17847;31.524;74.366;2023-08-12T12:29:29;97275.69;;;34.70;nan
31225;BME280;17847;31.524;74.366;2023-08-12T12:32:00;97277.22;;;34.64;nan
31225;BME280;17847;31.524;74.366;2023-08-12T12:34:29;97281.50;;;34.58;nan
31225;BME280;17847;31.524;74.366;2023-08-12T12:36:59;97279.53;;;34.55;nan
31225;BME280;17847;31.524;74.366;2023-08-12T12:39:28;97279.91;;;34.54;nan
31225;BME280;17847;31.524;74.366;2023-08-12T12:41:59;97275.56;;;34.53;nan
31225;BME280;17847;31.524;74.366;2023-08-12T12:44:30;97278.31;;;34.49;nan
31225;BME280;17847;31.524;74.366;2023-08-12T12:46:59;97278.66;;;34.44;nan
31225;BME280;17847;31.524;74.366;2023-08-12T12:49:29;97279.44;;;34.41;nan
31225;BME280;17847;31.524;74.366;2023-08-12T12:51:58;97271.53;;;34.36;nan
31225;BME280;17847;31.524;74.366;2023-08-12T12:54:27;97275.06;;;34.33;nan
31225;BME280;17847;31.524;74.366;2023-08-12T12:56:59;97272.31;;;34.30;nan
31225;BME280;17847;31.524;74.366;2023-08-12T12:59:30;97273.84;;;34.27;nan
31225;BME280;17847;31.524;74.366;2023-08-12T13:02:00;97275.00;;;34.26;nan
31225;BME280;17847;31.524;74.366;2023-08-12T13:04:30;97278.53;;;34.23;nan
31225;BME280;17847;31.524;74.366;2023-08-12T13:06:59;97271.03;;;34.16;nan
31225;BME280;17847;31.524;74.366;2023-08-12T13:09:29;97272.97;;;34.16;nan
31225;BME280;17847;31.524;74.366;2023-08-12T13:11:59;97271.38;;;34.15;nan
31225;BME280;17847;31.524;74.366;2023-08-12T13:14:29;97272.50;;;34.07;nan
31225;BME280;17847;31.524;74.366;2023-08-12T13:17:03;97271.34;;;34.08;nan
31225;BME280;17847;31.524;74.366;2023-08-12T13:19:35;97270.91;;;34.06;nan
31225;BME280;17847;31.524;74.366;2023-08-12T13:22:04;97272.84;;;34.02;nan
31225;BME280;17847;31.524;74.366;2023-08-12T13:24:33;97278.69;;;33.97;nan
31225;BME280;17847;31.524;74.366;2023-08-12T13:27:03;97281.00;;;33.95;nan